Terminal Aerodrome Forecast
Issued by NWS Melbourne, FL

Current Version | Previous Version | Text Only | Print | Product List | Glossary On
Versions: 1 2 3 4 5 6 7 8 9 10 11 12
944
FTUS42 KMLB 231120
TAFVRB
TAF
KVRB 231120Z 2312/2412 17003KT P6SM FEW025 SCT300
     FM231400 12010KT P6SM VCSH SCT030
     FM231800 12013G19KT P6SM SCT040
     FM240000 13008KT P6SM FEW060=

USA.gov is the U.S. government's official web portal to all federal, state and local government web resources and services.